sensor_id;sensor_type;location;lat;lon;timestamp;P1;durP1;ratioP1;P2;durP2;ratioP2
80987;SDS011;70452;39.386;-3.210;2023-06-24T00:04:05;6.03;;;2.15;;
80987;SDS011;70452;39.386;-3.210;2023-06-24T00:06:43;7.60;;;2.25;;
80987;SDS011;70452;39.386;-3.210;2023-06-24T00:09:20;6.35;;;1.95;;
80987;SDS011;70452;39.386;-3.210;2023-06-24T00:11:47;6.82;;;2.22;;
80987;SDS011;70452;39.386;-3.210;2023-06-24T00:14:18;8.75;;;1.90;;
80987;SDS011;70452;39.386;-3.210;2023-06-24T00:16:50;6.40;;;1.52;;
80987;SDS011;70452;39.386;-3.210;2023-06-24T00:19:26;6.82;;;1.80;;
80987;SDS011;70452;39.386;-3.210;2023-06-24T00:22:02;6.75;;;2.45;;
80987;SDS011;70452;39.386;-3.210;2023-06-24T00:24:28;7.30;;;1.45;;
80987;SDS011;70452;39.386;-3.210;2023-06-24T00:27:08;5.35;;;1.63;;
80987;SDS011;70452;39.386;-3.210;2023-06-24T00:29:42;7.18;;;1.70;;
80987;SDS011;70452;39.386;-3.210;2023-06-24T00:32:30;6.65;;;1.90;;
80987;SDS011;70452;39.386;-3.210;2023-06-24T00:35:05;6.65;;;2.10;;
80987;SDS011;70452;39.386;-3.210;2023-06-24T00:37:34;7.57;;;2.30;;
80987;SDS011;70452;39.386;-3.210;2023-06-24T00:40:18;7.38;;;2.03;;
80987;SDS011;70452;39.386;-3.210;2023-06-24T00:42:55;6.18;;;1.48;;
80987;SDS011;70452;39.386;-3.210;2023-06-24T00:45:23;6.53;;;2.03;;
80987;SDS011;70452;39.386;-3.210;2023-06-24T00:47:59;6.63;;;2.40;;
80987;SDS011;70452;39.386;-3.210;2023-06-24T00:50:30;7.07;;;2.13;;
80987;SDS011;70452;39.386;-3.210;2023-06-24T00:53:02;6.30;;;1.60;;
80987;SDS011;70452;39.386;-3.210;2023-06-24T00:55:37;6.25;;;1.70;;
80987;SDS011;70452;39.386;-3.210;2023-06-24T00:58:06;7.13;;;1.77;;
80987;SDS011;70452;39.386;-3.210;2023-06-24T01:00:38;5.95;;;1.70;;
80987;SDS011;70452;39.386;-3.210;2023-06-24T01:03:08;6.15;;;1.65;;
80987;SDS011;70452;39.386;-3.210;2023-06-24T01:05:44;6.03;;;1.50;;
80987;SDS011;70452;39.386;-3.210;2023-06-24T01:08:16;6.95;;;1.35;;
80987;SDS011;70452;39.386;-3.210;2023-06-24T01:10:54;6.97;;;1.85;;
80987;SDS011;70452;39.386;-3.210;2023-06-24T01:13:35;5.85;;;1.80;;
80987;SDS011;70452;39.386;-3.210;2023-06-24T01:16:10;6.63;;;1.70;;
80987;SDS011;70452;39.386;-3.210;2023-06-24T01:18:52;6.28;;;1.80;;
80987;SDS011;70452;39.386;-3.210;2023-06-24T01:24:29;5.75;;;1.63;;
80987;SDS011;70452;39.386;-3.210;2023-06-24T01:32:53;6.43;;;1.33;;
80987;SDS011;70452;39.386;-3.210;2023-06-24T01:35:31;6.18;;;2.00;;
80987;SDS011;70452;39.386;-3.210;2023-06-24T01:38:14;7.15;;;1.92;;
80987;SDS011;70452;39.386;-3.210;2023-06-24T01:40:56;5.53;;;1.67;;
80987;SDS011;70452;39.386;-3.210;2023-06-24T01:43:24;7.00;;;1.60;;
80987;SDS011;70452;39.386;-3.210;2023-06-24T01:45:52;6.15;;;1.55;;
80987;SDS011;70452;39.386;-3.210;2023-06-24T01:48:25;11.35;;;1.73;;
80987;SDS011;70452;39.386;-3.210;2023-06-24T01:51:08;8.68;;;2.70;;
80987;SDS011;70452;39.386;-3.210;2023-06-24T01:53:42;7.07;;;1.85;;
80987;SDS011;70452;39.386;-3.210;2023-06-24T01:56:20;6.32;;;1.70;;
80987;SDS011;70452;39.386;-3.210;2023-06-24T01:58:52;7.93;;;1.58;;
80987;SDS011;70452;39.386;-3.210;2023-06-24T02:01:29;6.47;;;1.85;;
80987;SDS011;70452;39.386;-3.210;2023-06-24T02:03:57;8.43;;;1.85;;
80987;SDS011;70452;39.386;-3.210;2023-06-24T02:06:34;5.65;;;1.52;;
80987;SDS011;70452;39.386;-3.210;2023-06-24T02:09:09;7.32;;;1.48;;
80987;SDS011;70452;39.386;-3.210;2023-06-24T02:11:36;6.60;;;1.70;;
80987;SDS011;70452;39.386;-3.210;2023-06-24T02:14:25;7.40;;;1.60;;
80987;SDS011;70452;39.386;-3.210;2023-06-24T02:16:56;7.47;;;1.50;;
80987;SDS011;70452;39.386;-3.210;2023-06-24T02:19:27;6.03;;;1.63;;
80987;SDS011;70452;39.386;-3.210;2023-06-24T02:22:05;8.50;;;2.33;;
80987;SDS011;70452;39.386;-3.210;2023-06-24T02:27:20;5.75;;;1.35;;
80987;SDS011;70452;39.386;-3.210;2023-06-24T02:29:50;6.57;;;1.60;;
80987;SDS011;70452;39.386;-3.210;2023-06-24T02:32:23;5.75;;;1.90;;
80987;SDS011;70452;39.386;-3.210;2023-06-24T02:34:52;7.63;;;1.63;;
80987;SDS011;70452;39.386;-3.210;2023-06-24T02:37:21;7.93;;;2.25;;
80987;SDS011;70452;39.386;-3.210;2023-06-24T02:39:58;7.72;;;2.17;;
80987;SDS011;70452;39.386;-3.210;2023-06-24T02:42:33;8.77;;;2.28;;
80987;SDS011;70452;39.386;-3.210;2023-06-24T02:45:09;7.78;;;2.00;;
80987;SDS011;70452;39.386;-3.210;2023-06-24T02:47:37;7.53;;;2.53;;
80987;SDS011;70452;39.386;-3.210;2023-06-24T02:50:09;9.77;;;2.63;;
80987;SDS011;70452;39.386;-3.210;2023-06-24T02:52:47;7.18;;;1.65;;
80987;SDS011;70452;39.386;-3.210;2023-06-24T02:55:17;6.80;;;1.67;;
80987;SDS011;70452;39.386;-3.210;2023-06-24T02:57:46;6.75;;;2.30;;
80987;SDS011;70452;39.386;-3.210;2023-06-24T03:00:16;5.55;;;1.60;;
80987;SDS011;70452;39.386;-3.210;2023-06-24T03:02:50;6.40;;;2.13;;
80987;SDS011;70452;39.386;-3.210;2023-06-24T03:05:21;7.72;;;1.80;;
80987;SDS011;70452;39.386;-3.210;2023-06-24T03:07:59;8.02;;;1.90;;
80987;SDS011;70452;39.386;-3.210;2023-06-24T03:10:32;6.05;;;2.08;;
80987;SDS011;70452;39.386;-3.210;2023-06-24T03:13:08;5.75;;;1.90;;
80987;SDS011;70452;39.386;-3.210;2023-06-24T03:15:41;5.40;;;1.42;;
80987;SDS011;70452;39.386;-3.210;2023-06-24T03:18:18;6.65;;;1.23;;
80987;SDS011;70452;39.386;-3.210;2023-06-24T03:20:49;6.57;;;1.70;;
80987;SDS011;70452;39.386;-3.210;2023-06-24T03:23:17;6.47;;;1.63;;
80987;SDS011;70452;39.386;-3.210;2023-06-24T03:25:47;5.65;;;2.10;;
80987;SDS011;70452;39.386;-3.210;2023-06-24T03:28:20;7.25;;;1.55;;
80987;SDS011;70452;39.386;-3.210;2023-06-24T03:30:51;6.03;;;1.73;;
80987;SDS011;70452;39.386;-3.210;2023-06-24T03:33:25;6.13;;;1.45;;
80987;SDS011;70452;39.386;-3.210;2023-06-24T03:36:03;6.88;;;1.65;;
80987;SDS011;70452;39.386;-3.210;2023-06-24T03:38:32;6.22;;;1.77;;
80987;SDS011;70452;39.386;-3.210;2023-06-24T03:41:01;7.40;;;2.13;;
80987;SDS011;70452;39.386;-3.210;2023-06-24T03:43:32;7.03;;;1.38;;
80987;SDS011;70452;39.386;-3.210;2023-06-24T03:45:58;9.23;;;1.63;;
80987;SDS011;70452;39.386;-3.210;2023-06-24T03:48:29;8.27;;;1.88;;
80987;SDS011;70452;39.386;-3.210;2023-06-24T03:51:05;6.07;;;1.27;;
80987;SDS011;70452;39.386;-3.210;2023-06-24T03:53:42;8.32;;;2.30;;
80987;SDS011;70452;39.386;-3.210;2023-06-24T03:56:11;11.50;;;2.20;;
80987;SDS011;70452;39.386;-3.210;2023-06-24T03:58:52;6.10;;;1.60;;
80987;SDS011;70452;39.386;-3.210;2023-06-24T04:01:41;6.13;;;1.58;;
80987;SDS011;70452;39.386;-3.210;2023-06-24T04:04:13;6.40;;;1.33;;
80987;SDS011;70452;39.386;-3.210;2023-06-24T04:06:49;7.95;;;1.67;;
80987;SDS011;70452;39.386;-3.210;2023-06-24T04:09:17;6.85;;;1.52;;
80987;SDS011;70452;39.386;-3.210;2023-06-24T04:11:51;6.90;;;1.73;;
80987;SDS011;70452;39.386;-3.210;2023-06-24T04:14:23;7.18;;;1.77;;
80987;SDS011;70452;39.386;-3.210;2023-06-24T04:16:58;9.38;;;1.70;;
80987;SDS011;70452;39.386;-3.210;2023-06-24T04:19:31;5.93;;;1.38;;
80987;SDS011;70452;39.386;-3.210;2023-06-24T04:22:04;8.80;;;2.33;;
80987;SDS011;70452;39.386;-3.210;2023-06-24T04:24:39;6.85;;;1.92;;
80987;SDS011;70452;39.386;-3.210;2023-06-24T04:27:09;6.30;;;1.73;;
80987;SDS011;70452;39.386;-3.210;2023-06-24T04:29:40;6.78;;;2.17;;
80987;SDS011;70452;39.386;-3.210;2023-06-24T04:32:15;8.13;;;1.90;;
80987;SDS011;70452;39.386;-3.210;2023-06-24T04:34:40;7.35;;;2.28;;
80987;SDS011;70452;39.386;-3.210;2023-06-24T04:37:12;7.53;;;2.17;;
80987;SDS011;70452;39.386;-3.210;2023-06-24T04:39:42;6.68;;;1.80;;
80987;SDS011;70452;39.386;-3.210;2023-06-24T04:42:12;7.00;;;1.70;;
80987;SDS011;70452;39.386;-3.210;2023-06-24T04:44:41;6.95;;;1.63;;
80987;SDS011;70452;39.386;-3.210;2023-06-24T04:47:12;5.18;;;1.42;;
80987;SDS011;70452;39.386;-3.210;2023-06-24T04:49:43;8.30;;;2.10;;
80987;SDS011;70452;39.386;-3.210;2023-06-24T04:52:16;8.82;;;2.38;;
80987;SDS011;70452;39.386;-3.210;2023-06-24T04:54:45;8.23;;;1.95;;
80987;SDS011;70452;39.386;-3.210;2023-06-24T04:57:26;7.15;;;1.65;;
80987;SDS011;70452;39.386;-3.210;2023-06-24T04:59:58;7.47;;;1.70;;
80987;SDS011;70452;39.386;-3.210;2023-06-24T05:02:31;6.13;;;1.20;;
80987;SDS011;70452;39.386;-3.210;2023-06-24T05:05:12;5.05;;;1.33;;
80987;SDS011;70452;39.386;-3.210;2023-06-24T05:07:47;7.07;;;1.95;;
80987;SDS011;70452;39.386;-3.210;2023-06-24T05:10:13;7.75;;;1.58;;
80987;SDS011;70452;39.386;-3.210;2023-06-24T05:12:42;6.90;;;1.98;;
80987;SDS011;70452;39.386;-3.210;2023-06-24T05:15:11;5.63;;;1.60;;
80987;SDS011;70452;39.386;-3.210;2023-06-24T05:17:58;5.63;;;1.52;;
80987;SDS011;70452;39.386;-3.210;2023-06-24T05:20:27;6.78;;;1.85;;
80987;SDS011;70452;39.386;-3.210;2023-06-24T05:23:03;8.02;;;2.20;;
80987;SDS011;70452;39.386;-3.210;2023-06-24T05:25:31;6.63;;;1.75;;
80987;SDS011;70452;39.386;-3.210;2023-06-24T05:28:06;6.22;;;1.90;;
80987;SDS011;70452;39.386;-3.210;2023-06-24T05:30:34;4.90;;;1.55;;
80987;SDS011;70452;39.386;-3.210;2023-06-24T05:33:06;6.50;;;1.65;;
80987;SDS011;70452;39.386;-3.210;2023-06-24T05:35:44;6.47;;;2.40;;
80987;SDS011;70452;39.386;-3.210;2023-06-24T05:38:09;6.18;;;1.80;;
80987;SDS011;70452;39.386;-3.210;2023-06-24T05:40:45;5.40;;;1.40;;
80987;SDS011;70452;39.386;-3.210;2023-06-24T05:43:21;6.82;;;2.00;;
80987;SDS011;70452;39.386;-3.210;2023-06-24T05:45:58;7.20;;;1.80;;
80987;SDS011;70452;39.386;-3.210;2023-06-24T05:48:38;7.07;;;2.10;;
80987;SDS011;70452;39.386;-3.210;2023-06-24T05:51:10;8.68;;;2.47;;
80987;SDS011;70452;39.386;-3.210;2023-06-24T05:53:48;6.68;;;1.65;;
80987;SDS011;70452;39.386;-3.210;2023-06-24T05:56:15;7.63;;;2.17;;
80987;SDS011;70452;39.386;-3.210;2023-06-24T05:58:50;7.28;;;2.03;;
80987;SDS011;70452;39.386;-3.210;2023-06-24T06:01:18;6.05;;;1.73;;
80987;SDS011;70452;39.386;-3.210;2023-06-24T06:03:55;8.18;;;2.60;;
80987;SDS011;70452;39.386;-3.210;2023-06-24T06:06:24;6.30;;;2.10;;
80987;SDS011;70452;39.386;-3.210;2023-06-24T06:08:56;6.40;;;1.42;;
80987;SDS011;70452;39.386;-3.210;2023-06-24T06:11:39;7.60;;;2.35;;
80987;SDS011;70452;39.386;-3.210;2023-06-24T06:14:21;7.25;;;2.22;;
80987;SDS011;70452;39.386;-3.210;2023-06-24T06:16:57;6.57;;;1.83;;
80987;SDS011;70452;39.386;-3.210;2023-06-24T06:19:34;6.43;;;2.30;;
80987;SDS011;70452;39.386;-3.210;2023-06-24T06:22:06;6.38;;;1.50;;
80987;SDS011;70452;39.386;-3.210;2023-06-24T06:24:41;6.75;;;2.13;;
80987;SDS011;70452;39.386;-3.210;2023-06-24T06:27:10;5.95;;;1.88;;
80987;SDS011;70452;39.386;-3.210;2023-06-24T06:29:50;7.07;;;1.80;;
80987;SDS011;70452;39.386;-3.210;2023-06-24T06:32:24;6.95;;;1.98;;
80987;SDS011;70452;39.386;-3.210;2023-06-24T06:34:53;5.70;;;1.65;;
80987;SDS011;70452;39.386;-3.210;2023-06-24T06:37:26;5.95;;;1.80;;
80987;SDS011;70452;39.386;-3.210;2023-06-24T06:39:55;5.43;;;1.55;;
80987;SDS011;70452;39.386;-3.210;2023-06-24T06:42:30;7.57;;;2.20;;
80987;SDS011;70452;39.386;-3.210;2023-06-24T06:44:56;7.28;;;2.85;;
80987;SDS011;70452;39.386;-3.210;2023-06-24T06:47:40;6.65;;;2.20;;
80987;SDS011;70452;39.386;-3.210;2023-06-24T06:50:08;7.55;;;2.10;;
80987;SDS011;70452;39.386;-3.210;2023-06-24T06:52:41;7.22;;;2.65;;
80987;SDS011;70452;39.386;-3.210;2023-06-24T06:55:12;10.43;;;2.75;;
80987;SDS011;70452;39.386;-3.210;2023-06-24T06:57:44;6.38;;;2.17;;
80987;SDS011;70452;39.386;-3.210;2023-06-24T07:00:24;6.63;;;2.00;;
80987;SDS011;70452;39.386;-3.210;2023-06-24T07:03:05;5.38;;;1.83;;
80987;SDS011;70452;39.386;-3.210;2023-06-24T07:05:44;7.15;;;1.95;;
80987;SDS011;70452;39.386;-3.210;2023-06-24T07:08:20;7.07;;;1.92;;
80987;SDS011;70452;39.386;-3.210;2023-06-24T07:10:58;6.28;;;2.05;;
80987;SDS011;70452;39.386;-3.210;2023-06-24T07:13:46;7.75;;;1.88;;
80987;SDS011;70452;39.386;-3.210;2023-06-24T07:16:35;5.72;;;2.17;;
80987;SDS011;70452;39.386;-3.210;2023-06-24T07:19:05;7.40;;;2.00;;
80987;SDS011;70452;39.386;-3.210;2023-06-24T07:21:34;6.63;;;1.98;;
80987;SDS011;70452;39.386;-3.210;2023-06-24T07:24:07;7.90;;;2.97;;
80987;SDS011;70452;39.386;-3.210;2023-06-24T07:26:52;7.72;;;1.95;;
80987;SDS011;70452;39.386;-3.210;2023-06-24T07:29:26;10.65;;;3.22;;
80987;SDS011;70452;39.386;-3.210;2023-06-24T07:31:59;7.18;;;2.30;;
80987;SDS011;70452;39.386;-3.210;2023-06-24T07:34:29;6.22;;;3.30;;
80987;SDS011;70452;39.386;-3.210;2023-06-24T07:36:58;7.93;;;2.33;;
80987;SDS011;70452;39.386;-3.210;2023-06-24T07:39:26;7.15;;;2.08;;
80987;SDS011;70452;39.386;-3.210;2023-06-24T07:41:57;5.90;;;2.20;;
80987;SDS011;70452;39.386;-3.210;2023-06-24T07:44:24;7.60;;;2.63;;
80987;SDS011;70452;39.386;-3.210;2023-06-24T07:46:50;6.97;;;2.30;;
80987;SDS011;70452;39.386;-3.210;2023-06-24T07:49:39;6.28;;;1.83;;
80987;SDS011;70452;39.386;-3.210;2023-06-24T07:52:07;8.25;;;2.50;;
80987;SDS011;70452;39.386;-3.210;2023-06-24T07:54:36;6.13;;;3.22;;
80987;SDS011;70452;39.386;-3.210;2023-06-24T07:57:09;8.63;;;2.58;;
80987;SDS011;70452;39.386;-3.210;2023-06-24T07:59:50;7.93;;;3.20;;
80987;SDS011;70452;39.386;-3.210;2023-06-24T08:02:30;5.65;;;2.30;;
80987;SDS011;70452;39.386;-3.210;2023-06-24T08:04:58;5.55;;;1.67;;
80987;SDS011;70452;39.386;-3.210;2023-06-24T08:07:29;6.25;;;2.25;;
80987;SDS011;70452;39.386;-3.210;2023-06-24T08:10:05;5.60;;;2.00;;
80987;SDS011;70452;39.386;-3.210;2023-06-24T08:12:37;6.90;;;1.88;;
80987;SDS011;70452;39.386;-3.210;2023-06-24T08:15:09;8.95;;;1.85;;
80987;SDS011;70452;39.386;-3.210;2023-06-24T08:17:50;6.93;;;1.92;;
80987;SDS011;70452;39.386;-3.210;2023-06-24T08:20:21;9.05;;;2.30;;
80987;SDS011;70452;39.386;-3.210;2023-06-24T08:23:06;6.78;;;2.08;;
80987;SDS011;70452;39.386;-3.210;2023-06-24T08:25:40;7.13;;;3.00;;
80987;SDS011;70452;39.386;-3.210;2023-06-24T08:28:10;5.88;;;2.30;;
80987;SDS011;70452;39.386;-3.210;2023-06-24T08:30:58;6.47;;;2.38;;
80987;SDS011;70452;39.386;-3.210;2023-06-24T08:33:27;6.65;;;1.80;;
80987;SDS011;70452;39.386;-3.210;2023-06-24T08:36:26;6.78;;;2.28;;
80987;SDS011;70452;39.386;-3.210;2023-06-24T08:39:09;5.50;;;1.77;;
80987;SDS011;70452;39.386;-3.210;2023-06-24T08:41:41;6.05;;;3.47;;
80987;SDS011;70452;39.386;-3.210;2023-06-24T08:44:11;8.25;;;3.85;;
80987;SDS011;70452;39.386;-3.210;2023-06-24T08:46:37;6.75;;;2.90;;
80987;SDS011;70452;39.386;-3.210;2023-06-24T08:49:12;7.55;;;2.47;;
80987;SDS011;70452;39.386;-3.210;2023-06-24T08:52:00;5.93;;;1.92;;
80987;SDS011;70452;39.386;-3.210;2023-06-24T08:54:36;5.50;;;2.65;;
80987;SDS011;70452;39.386;-3.210;2023-06-24T08:57:05;6.72;;;2.15;;
80987;SDS011;70452;39.386;-3.210;2023-06-24T08:59:42;7.55;;;3.15;;
80987;SDS011;70452;39.386;-3.210;2023-06-24T09:02:13;6.07;;;2.72;;
80987;SDS011;70452;39.386;-3.210;2023-06-24T09:04:40;8.65;;;3.55;;
80987;SDS011;70452;39.386;-3.210;2023-06-24T09:07:10;6.03;;;2.80;;
80987;SDS011;70452;39.386;-3.210;2023-06-24T09:09:52;6.38;;;2.90;;
80987;SDS011;70452;39.386;-3.210;2023-06-24T09:12:19;7.88;;;2.75;;
80987;SDS011;70452;39.386;-3.210;2023-06-24T09:14:55;6.47;;;2.55;;
80987;SDS011;70452;39.386;-3.210;2023-06-24T09:17:29;8.00;;;3.47;;
80987;SDS011;70452;39.386;-3.210;2023-06-24T09:20:04;6.05;;;3.58;;
80987;SDS011;70452;39.386;-3.210;2023-06-24T09:22:36;8.00;;;3.65;;
80987;SDS011;70452;39.386;-3.210;2023-06-24T09:25:07;7.32;;;4.47;;
80987;SDS011;70452;39.386;-3.210;2023-06-24T09:27:53;8.07;;;3.05;;
80987;SDS011;70452;39.386;-3.210;2023-06-24T09:30:28;7.47;;;3.15;;
80987;SDS011;70452;39.386;-3.210;2023-06-24T09:33:01;9.90;;;4.13;;
80987;SDS011;70452;39.386;-3.210;2023-06-24T09:35:30;7.45;;;2.88;;
80987;SDS011;70452;39.386;-3.210;2023-06-24T09:38:04;5.78;;;3.38;;
80987;SDS011;70452;39.386;-3.210;2023-06-24T09:40:59;7.05;;;3.40;;
80987;SDS011;70452;39.386;-3.210;2023-06-24T09:43:27;9.48;;;3.47;;
80987;SDS011;70452;39.386;-3.210;2023-06-24T09:48:45;7.05;;;3.03;;
80987;SDS011;70452;39.386;-3.210;2023-06-24T09:51:13;5.80;;;2.97;;
80987;SDS011;70452;39.386;-3.210;2023-06-24T09:53:47;7.25;;;2.75;;
80987;SDS011;70452;39.386;-3.210;2023-06-24T09:56:17;6.05;;;3.17;;
80987;SDS011;70452;39.386;-3.210;2023-06-24T09:58:55;6.40;;;2.67;;
80987;SDS011;70452;39.386;-3.210;2023-06-24T10:01:21;8.70;;;4.05;;
80987;SDS011;70452;39.386;-3.210;2023-06-24T10:03:59;7.90;;;3.50;;
80987;SDS011;70452;39.386;-3.210;2023-06-24T10:06:26;7.07;;;3.75;;
80987;SDS011;70452;39.386;-3.210;2023-06-24T10:08:53;8.90;;;3.13;;
80987;SDS011;70452;39.386;-3.210;2023-06-24T10:11:22;6.40;;;2.85;;
80987;SDS011;70452;39.386;-3.210;2023-06-24T10:13:48;6.55;;;3.53;;
80987;SDS011;70452;39.386;-3.210;2023-06-24T10:16:17;7.15;;;3.30;;
80987;SDS011;70452;39.386;-3.210;2023-06-24T10:18:59;8.27;;;3.75;;
80987;SDS011;70452;39.386;-3.210;2023-06-24T10:21:49;6.20;;;2.85;;
80987;SDS011;70452;39.386;-3.210;2023-06-24T10:24:32;6.65;;;2.40;;
80987;SDS011;70452;39.386;-3.210;2023-06-24T10:27:08;7.25;;;3.47;;
80987;SDS011;70452;39.386;-3.210;2023-06-24T10:29:50;6.10;;;2.33;;
80987;SDS011;70452;39.386;-3.210;2023-06-24T10:32:22;6.22;;;3.03;;
80987;SDS011;70452;39.386;-3.210;2023-06-24T10:34:55;8.25;;;3.50;;
80987;SDS011;70452;39.386;-3.210;2023-06-24T10:37:54;6.32;;;2.40;;
80987;SDS011;70452;39.386;-3.210;2023-06-24T10:40:35;7.68;;;4.38;;
80987;SDS011;70452;39.386;-3.210;2023-06-24T10:43:38;7.63;;;3.95;;
80987;SDS011;70452;39.386;-3.210;2023-06-24T10:46:07;7.75;;;2.83;;
80987;SDS011;70452;39.386;-3.210;2023-06-24T10:49:10;6.40;;;3.35;;
80987;SDS011;70452;39.386;-3.210;2023-06-24T10:51:45;7.35;;;3.90;;
80987;SDS011;70452;39.386;-3.210;2023-06-24T10:54:20;6.07;;;2.83;;
80987;SDS011;70452;39.386;-3.210;2023-06-24T10:56:52;7.63;;;3.13;;
80987;SDS011;70452;39.386;-3.210;2023-06-24T10:59:26;8.45;;;3.80;;
80987;SDS011;70452;39.386;-3.210;2023-06-24T11:02:22;7.25;;;3.70;;
80987;SDS011;70452;39.386;-3.210;2023-06-24T11:04:52;5.88;;;3.30;;
80987;SDS011;70452;39.386;-3.210;2023-06-24T11:07:20;6.90;;;3.50;;
80987;SDS011;70452;39.386;-3.210;2023-06-24T11:12:30;8.52;;;3.10;;
80987;SDS011;70452;39.386;-3.210;2023-06-24T11:15:08;8.18;;;3.28;;
80987;SDS011;70452;39.386;-3.210;2023-06-24T11:17:44;6.47;;;3.08;;
80987;SDS011;70452;39.386;-3.210;2023-06-24T11:20:18;6.75;;;3.38;;
80987;SDS011;70452;39.386;-3.210;2023-06-24T11:22:50;7.78;;;3.25;;
80987;SDS011;70452;39.386;-3.210;2023-06-24T11:25:23;6.55;;;2.88;;
80987;SDS011;70452;39.386;-3.210;2023-06-24T11:27:52;6.70;;;3.45;;
80987;SDS011;70452;39.386;-3.210;2023-06-24T11:30:37;6.55;;;4.15;;
80987;SDS011;70452;39.386;-3.210;2023-06-24T11:33:08;7.75;;;3.42;;
80987;SDS011;70452;39.386;-3.210;2023-06-24T11:35:58;6.00;;;3.10;;
80987;SDS011;70452;39.386;-3.210;2023-06-24T11:38:30;7.20;;;3.58;;
80987;SDS011;70452;39.386;-3.210;2023-06-24T11:41:01;6.15;;;2.85;;
80987;SDS011;70452;39.386;-3.210;2023-06-24T11:43:34;7.50;;;3.65;;
80987;SDS011;70452;39.386;-3.210;2023-06-24T11:46:41;6.28;;;2.92;;
80987;SDS011;70452;39.386;-3.210;2023-06-24T11:49:09;6.95;;;3.38;;
80987;SDS011;70452;39.386;-3.210;2023-06-24T11:51:37;9.45;;;4.25;;
80987;SDS011;70452;39.386;-3.210;2023-06-24T11:54:13;10.13;;;3.17;;
80987;SDS011;70452;39.386;-3.210;2023-06-24T11:56:43;8.25;;;3.83;;
80987;SDS011;70452;39.386;-3.210;2023-06-24T11:59:21;8.60;;;4.30;;
80987;SDS011;70452;39.386;-3.210;2023-06-24T12:01:58;9.95;;;5.00;;
80987;SDS011;70452;39.386;-3.210;2023-06-24T12:04:29;11.07;;;4.82;;
80987;SDS011;70452;39.386;-3.210;2023-06-24T12:06:59;7.85;;;4.32;;
80987;SDS011;70452;39.386;-3.210;2023-06-24T12:09:25;9.18;;;4.20;;
80987;SDS011;70452;39.386;-3.210;2023-06-24T12:12:03;9.75;;;4.18;;
80987;SDS011;70452;39.386;-3.210;2023-06-24T12:14:41;10.10;;;4.15;;
80987;SDS011;70452;39.386;-3.210;2023-06-24T12:17:12;8.48;;;4.07;;
80987;SDS011;70452;39.386;-3.210;2023-06-24T12:19:47;8.95;;;4.78;;
80987;SDS011;70452;39.386;-3.210;2023-06-24T12:22:16;11.73;;;8.68;;
80987;SDS011;70452;39.386;-3.210;2023-06-24T12:24:48;6.95;;;4.00;;
80987;SDS011;70452;39.386;-3.210;2023-06-24T12:27:16;7.00;;;3.90;;
80987;SDS011;70452;39.386;-3.210;2023-06-24T12:29:48;7.93;;;3.90;;
80987;SDS011;70452;39.386;-3.210;2023-06-24T12:32:13;7.45;;;4.18;;
80987;SDS011;70452;39.386;-3.210;2023-06-24T12:34:44;7.22;;;4.80;;
80987;SDS011;70452;39.386;-3.210;2023-06-24T12:37:15;7.75;;;4.47;;
80987;SDS011;70452;39.386;-3.210;2023-06-24T12:40:12;9.82;;;5.15;;
80987;SDS011;70452;39.386;-3.210;2023-06-24T12:42:46;7.65;;;3.83;;
80987;SDS011;70452;39.386;-3.210;2023-06-24T12:45:15;8.43;;;5.60;;
80987;SDS011;70452;39.386;-3.210;2023-06-24T12:47:44;8.48;;;5.50;;
80987;SDS011;70452;39.386;-3.210;2023-06-24T12:50:31;7.93;;;4.45;;
80987;SDS011;70452;39.386;-3.210;2023-06-24T12:53:00;8.10;;;4.18;;
80987;SDS011;70452;39.386;-3.210;2023-06-24T12:55:41;9.23;;;4.18;;
80987;SDS011;70452;39.386;-3.210;2023-06-24T12:58:23;7.75;;;4.30;;
80987;SDS011;70452;39.386;-3.210;2023-06-24T13:01:00;7.97;;;5.72;;
80987;SDS011;70452;39.386;-3.210;2023-06-24T13:03:40;11.27;;;5.72;;
80987;SDS011;70452;39.386;-3.210;2023-06-24T13:06:13;8.00;;;5.20;;
80987;SDS011;70452;39.386;-3.210;2023-06-24T13:08:56;9.23;;;4.82;;
80987;SDS011;70452;39.386;-3.210;2023-06-24T13:11:25;7.28;;;4.05;;
80987;SDS011;70452;39.386;-3.210;2023-06-24T13:13:59;7.05;;;3.95;;
80987;SDS011;70452;39.386;-3.210;2023-06-24T13:16:31;7.90;;;4.65;;
80987;SDS011;70452;39.386;-3.210;2023-06-24T13:19:03;9.70;;;4.57;;
80987;SDS011;70452;39.386;-3.210;2023-06-24T13:21:35;10.85;;;6.55;;
80987;SDS011;70452;39.386;-3.210;2023-06-24T13:24:06;9.02;;;5.80;;
80987;SDS011;70452;39.386;-3.210;2023-06-24T13:26:38;7.05;;;4.03;;
80987;SDS011;70452;39.386;-3.210;2023-06-24T13:29:13;7.95;;;4.88;;
80987;SDS011;70452;39.386;-3.210;2023-06-24T13:31:40;8.05;;;4.00;;
80987;SDS011;70452;39.386;-3.210;2023-06-24T13:34:12;8.20;;;4.53;;
80987;SDS011;70452;39.386;-3.210;2023-06-24T13:36:40;9.57;;;4.72;;
80987;SDS011;70452;39.386;-3.210;2023-06-24T13:39:12;6.88;;;3.97;;
80987;SDS011;70452;39.386;-3.210;2023-06-24T13:41:54;7.57;;;4.07;;
80987;SDS011;70452;39.386;-3.210;2023-06-24T13:44:28;8.38;;;4.35;;
80987;SDS011;70452;39.386;-3.210;2023-06-24T13:47:02;9.82;;;4.65;;
80987;SDS011;70452;39.386;-3.210;2023-06-24T13:49:35;8.93;;;5.03;;
80987;SDS011;70452;39.386;-3.210;2023-06-24T13:52:15;7.60;;;4.03;;
80987;SDS011;70452;39.386;-3.210;2023-06-24T13:54:47;7.90;;;4.65;;
80987;SDS011;70452;39.386;-3.210;2023-06-24T13:57:22;8.35;;;5.50;;
80987;SDS011;70452;39.386;-3.210;2023-06-24T13:59:53;9.15;;;5.18;;
80987;SDS011;70452;39.386;-3.210;2023-06-24T14:02:28;8.75;;;4.20;;
80987;SDS011;70452;39.386;-3.210;2023-06-24T14:04:56;10.20;;;4.88;;
80987;SDS011;70452;39.386;-3.210;2023-06-24T14:07:30;6.78;;;4.50;;
80987;SDS011;70452;39.386;-3.210;2023-06-24T14:09:59;9.05;;;4.50;;
80987;SDS011;70452;39.386;-3.210;2023-06-24T14:12:36;7.45;;;4.20;;
80987;SDS011;70452;39.386;-3.210;2023-06-24T14:15:09;8.10;;;4.38;;
80987;SDS011;70452;39.386;-3.210;2023-06-24T14:17:38;7.90;;;4.00;;
80987;SDS011;70452;39.386;-3.210;2023-06-24T14:20:10;7.97;;;4.55;;
80987;SDS011;70452;39.386;-3.210;2023-06-24T14:22:39;7.20;;;4.00;;
80987;SDS011;70452;39.386;-3.210;2023-06-24T14:25:15;8.55;;;4.07;;
80987;SDS011;70452;39.386;-3.210;2023-06-24T14:27:58;8.73;;;4.38;;
80987;SDS011;70452;39.386;-3.210;2023-06-24T14:30:30;7.30;;;3.95;;
80987;SDS011;70452;39.386;-3.210;2023-06-24T14:32:57;7.80;;;5.13;;
80987;SDS011;70452;39.386;-3.210;2023-06-24T14:35:31;8.18;;;4.30;;
80987;SDS011;70452;39.386;-3.210;2023-06-24T14:37:59;8.70;;;4.38;;
80987;SDS011;70452;39.386;-3.210;2023-06-24T14:40:31;7.40;;;4.43;;
80987;SDS011;70452;39.386;-3.210;2023-06-24T14:43:07;9.13;;;4.30;;
80987;SDS011;70452;39.386;-3.210;2023-06-24T14:45:37;8.13;;;4.82;;
80987;SDS011;70452;39.386;-3.210;2023-06-24T14:48:06;7.50;;;4.15;;
80987;SDS011;70452;39.386;-3.210;2023-06-24T14:50:39;8.75;;;4.78;;
80987;SDS011;70452;39.386;-3.210;2023-06-24T14:53:13;8.18;;;4.15;;
80987;SDS011;70452;39.386;-3.210;2023-06-24T14:55:53;8.23;;;4.60;;
80987;SDS011;70452;39.386;-3.210;2023-06-24T14:58:26;8.23;;;4.90;;
80987;SDS011;70452;39.386;-3.210;2023-06-24T15:00:55;7.88;;;3.35;;
80987;SDS011;70452;39.386;-3.210;2023-06-24T15:03:27;7.93;;;4.97;;
80987;SDS011;70452;39.386;-3.210;2023-06-24T15:06:01;7.28;;;3.33;;
80987;SDS011;70452;39.386;-3.210;2023-06-24T15:08:30;7.35;;;4.38;;
80987;SDS011;70452;39.386;-3.210;2023-06-24T15:10:59;8.20;;;4.13;;
80987;SDS011;70452;39.386;-3.210;2023-06-24T15:13:31;8.60;;;3.90;;
80987;SDS011;70452;39.386;-3.210;2023-06-24T15:16:01;10.00;;;4.28;;
80987;SDS011;70452;39.386;-3.210;2023-06-24T15:18:30;9.90;;;3.92;;
80987;SDS011;70452;39.386;-3.210;2023-06-24T15:20:59;8.07;;;3.63;;
80987;SDS011;70452;39.386;-3.210;2023-06-24T15:23:25;8.32;;;4.00;;
80987;SDS011;70452;39.386;-3.210;2023-06-24T15:26:05;8.93;;;3.85;;
80987;SDS011;70452;39.386;-3.210;2023-06-24T15:28:34;9.15;;;4.07;;
80987;SDS011;70452;39.386;-3.210;2023-06-24T15:31:06;7.22;;;4.22;;
80987;SDS011;70452;39.386;-3.210;2023-06-24T15:33:38;9.30;;;4.28;;